createdAt,value
2023-12-08T05:02:32.866Z,29.90
2023-12-08T05:04:59.483Z,31.42
2023-12-08T05:07:26.562Z,37.60
2023-12-08T05:09:53.240Z,35.17
2023-12-08T05:12:19.799Z,36.23
2023-12-08T05:14:46.670Z,36.80
2023-12-08T05:17:13.317Z,34.88
2023-12-08T05:19:39.932Z,38.78
2023-12-08T05:22:06.588Z,33.47
2023-12-08T05:24:33.364Z,35.87
2023-12-08T05:26:59.980Z,33.92
2023-12-08T05:29:26.614Z,36.90
2023-12-08T05:31:53.210Z,37.10
2023-12-08T05:34:20.150Z,33.92
2023-12-08T05:36:46.804Z,36.60
2023-12-08T05:39:13.465Z,33.85
2023-12-08T05:41:40.154Z,38.45
2023-12-08T05:44:06.752Z,35.95
2023-12-08T05:46:33.404Z,31.77
2023-12-08T05:49:00.090Z,36.30
2023-12-08T05:51:26.952Z,36.75
2023-12-08T05:53:53.563Z,34.10
2023-12-08T05:56:20.216Z,32.30
2023-12-08T05:58:46.744Z,34.65
2023-12-08T06:01:15.327Z,32.40
2023-12-08T06:03:42.685Z,34.75
2023-12-08T06:06:09.453Z,31.65
2023-12-08T06:08:36.113Z,32.03
2023-12-08T06:11:03.505Z,31.10
2023-12-08T06:13:30.253Z,31.00
2023-12-08T06:15:57.026Z,29.55
2023-12-08T06:18:23.885Z,31.85
2023-12-08T06:20:50.648Z,32.45
2023-12-08T06:23:17.257Z,29.60
2023-12-08T06:25:43.843Z,30.13
2023-12-08T06:28:10.728Z,32.60
2023-12-08T06:30:37.346Z,35.33
2023-12-08T06:33:04.032Z,32.55
2023-12-08T06:35:30.879Z,42.15
2023-12-08T06:37:57.529Z,33.87
2023-12-08T06:40:24.119Z,36.15
2023-12-08T06:42:50.674Z,29.90
2023-12-08T06:45:17.506Z,33.38
2023-12-08T06:47:44.312Z,36.50
2023-12-08T06:50:11.508Z,34.80
2023-12-08T06:52:38.174Z,33.75
2023-12-08T06:55:05.124Z,36.45
2023-12-08T06:57:31.825Z,35.75
2023-12-08T07:00:01.238Z,36.00
2023-12-08T07:02:29.343Z,33.93
2023-12-08T07:04:55.930Z,35.85
2023-12-08T07:07:23.016Z,36.22
2023-12-08T07:09:49.543Z,40.15
2023-12-08T07:12:16.405Z,35.95
2023-12-08T07:14:43.167Z,35.07
2023-12-08T07:17:10.068Z,36.58
2023-12-08T07:19:39.593Z,37.65
2023-12-08T07:22:06.422Z,37.70
2023-12-08T07:24:32.967Z,38.45
2023-12-08T07:26:59.665Z,37.00
2023-12-08T07:29:26.259Z,39.60
2023-12-08T07:31:52.812Z,37.97
2023-12-08T07:34:19.478Z,41.75
2023-12-08T07:36:46.115Z,36.00
2023-12-08T07:39:12.758Z,40.60
2023-12-08T07:41:39.397Z,41.55
2023-12-08T07:44:06.111Z,43.35
2023-12-08T07:46:32.873Z,41.78
2023-12-08T07:48:59.608Z,43.97
2023-12-08T07:51:27.366Z,37.83
2023-12-08T07:53:54.068Z,44.78
2023-12-08T07:56:22.387Z,45.65
2023-12-08T07:58:50.328Z,46.28
2023-12-08T08:01:17.485Z,41.47
2023-12-08T08:03:44.148Z,44.10
2023-12-08T08:06:10.956Z,50.75
2023-12-08T08:08:38.022Z,48.22
2023-12-08T08:11:05.163Z,46.72
2023-12-08T08:13:33.346Z,54.92
2023-12-08T08:15:59.925Z,47.00
2023-12-08T08:18:28.284Z,51.97
2023-12-08T08:20:54.997Z,45.33
2023-12-08T08:23:21.704Z,46.95
2023-12-08T08:25:48.522Z,43.08
2023-12-08T08:28:15.379Z,47.23
2023-12-08T08:30:44.358Z,45.85
2023-12-08T08:33:11.087Z,50.00
2023-12-08T08:35:38.485Z,47.25
2023-12-08T08:38:05.065Z,48.05
2023-12-08T08:40:32.456Z,50.00
2023-12-08T08:42:59.183Z,48.20
2023-12-08T08:45:25.850Z,49.10
2023-12-08T08:47:52.575Z,50.03
2023-12-08T08:50:19.321Z,49.55
2023-12-08T08:52:46.001Z,51.70
2023-12-08T08:55:12.553Z,50.45
2023-12-08T08:57:39.111Z,51.72
2023-12-08T09:00:06.825Z,53.38
2023-12-08T09:02:33.863Z,55.95
2023-12-08T09:05:00.627Z,45.77
2023-12-08T09:07:27.533Z,50.60
2023-12-08T09:09:54.242Z,56.50
2023-12-08T09:12:20.934Z,51.30
2023-12-08T09:14:47.598Z,55.15
2023-12-08T09:17:14.209Z,52.43
2023-12-08T09:19:40.819Z,52.03
2023-12-08T09:22:07.477Z,50.67
2023-12-08T09:24:34.674Z,53.88
2023-12-08T09:27:02.453Z,60.97
2023-12-08T09:29:29.111Z,54.37
2023-12-08T09:31:55.728Z,55.78
2023-12-08T09:34:22.469Z,55.00
2023-12-08T09:37:24.880Z,57.83
2023-12-08T09:39:35.764Z,59.78
2023-12-08T09:42:07.825Z,55.57
2023-12-08T09:44:35.066Z,58.83
2023-12-08T09:47:06.456Z,54.15
2023-12-08T09:49:45.580Z,60.97
2023-12-08T09:52:15.165Z,56.55
2023-12-08T09:54:42.624Z,61.40
2023-12-08T09:57:10.603Z,59.95
2023-12-08T09:59:42.465Z,69.38
2023-12-08T10:02:09.197Z,61.90
2023-12-08T10:04:37.196Z,56.50
2023-12-08T10:07:04.418Z,61.63
2023-12-08T10:09:31.820Z,60.88
2023-12-08T10:11:58.440Z,61.88
2023-12-08T10:14:28.043Z,69.10
2023-12-08T10:16:54.696Z,55.70
2023-12-08T10:19:22.911Z,61.27
2023-12-08T10:21:59.819Z,67.93
2023-12-08T10:24:31.596Z,64.22
2023-12-08T10:27:00.290Z,66.78
2023-12-08T10:29:33.657Z,71.05
2023-12-08T10:32:01.310Z,76.93
2023-12-08T10:34:28.867Z,70.72
2023-12-08T10:36:56.348Z,71.18
2023-12-08T10:39:25.321Z,62.83
2023-12-08T10:41:52.536Z,60.30
2023-12-08T10:44:21.574Z,66.83
2023-12-08T10:46:51.934Z,63.45
2023-12-08T10:49:23.238Z,74.47
2023-12-08T10:51:50.910Z,61.47
2023-12-08T10:54:19.031Z,62.33
2023-12-08T10:56:49.946Z,67.03
2023-12-08T10:59:22.652Z,64.10
2023-12-08T11:01:53.086Z,67.35
2023-12-08T11:04:23.628Z,63.88
2023-12-08T11:07:05.275Z,62.38
2023-12-08T11:09:36.785Z,60.70
2023-12-08T11:12:07.807Z,64.72
2023-12-08T11:15:07.363Z,63.50
2023-12-08T11:17:50.878Z,66.00
2023-12-08T11:20:18.264Z,72.00
2023-12-08T11:22:47.113Z,74.47
2023-12-08T11:25:22.701Z,67.38
2023-12-08T11:27:58.321Z,74.00
2023-12-08T11:30:42.133Z,69.68
2023-12-08T11:33:37.182Z,75.72
2023-12-08T11:36:09.257Z,69.50
2023-12-08T11:38:36.019Z,74.72
2023-12-08T11:41:04.216Z,69.80
2023-12-08T11:43:31.440Z,89.72
2023-12-08T11:45:58.443Z,77.72
2023-12-08T11:48:26.302Z,82.33
2023-12-08T11:50:53.140Z,73.05
2023-12-08T11:53:19.995Z,70.50
2023-12-08T11:55:46.884Z,73.43
2023-12-08T11:58:14.866Z,77.57
2023-12-08T12:00:42.812Z,73.10
2023-12-08T12:03:12.810Z,73.30
2023-12-08T12:05:42.140Z,69.95
2023-12-08T12:08:09.588Z,74.35
2023-12-08T12:10:36.763Z,73.47
2023-12-08T12:13:09.238Z,74.47
2023-12-08T12:15:37.649Z,79.32
2023-12-08T12:18:05.939Z,81.47
2023-12-08T12:20:35.822Z,75.40
2023-12-08T12:23:03.732Z,78.15
2023-12-08T12:25:30.504Z,77.83
2023-12-08T12:27:58.941Z,74.32
2023-12-08T12:30:26.060Z,68.13
2023-12-08T12:32:53.037Z,88.00
2023-12-08T12:35:20.090Z,74.82
2023-12-08T12:37:47.559Z,65.40
2023-12-08T12:40:14.316Z,72.57
2023-12-08T12:42:47.449Z,78.72
2023-12-08T12:45:31.050Z,71.43
2023-12-08T12:48:10.172Z,71.88
2023-12-08T12:50:50.682Z,68.10
2023-12-08T12:53:17.467Z,68.22
2023-12-08T12:55:44.595Z,60.47
2023-12-08T12:58:22.198Z,72.93
2023-12-08T13:00:49.781Z,65.60
2023-12-08T13:03:24.927Z,65.70
2023-12-08T13:05:54.712Z,61.78
2023-12-08T13:08:22.033Z,59.42
2023-12-08T13:10:50.121Z,53.38
2023-12-08T13:13:17.107Z,54.17
2023-12-08T13:15:44.205Z,59.77
2023-12-08T13:18:11.626Z,53.55
2023-12-08T13:20:41.381Z,55.63
2023-12-08T13:23:09.072Z,51.30
2023-12-08T13:25:35.802Z,57.35
2023-12-08T13:28:02.374Z,63.47
2023-12-08T13:30:29.272Z,56.95
2023-12-08T13:32:56.928Z,62.80
2023-12-08T13:35:24.290Z,51.30
2023-12-08T13:37:51.124Z,55.08
2023-12-08T13:40:17.953Z,55.43
2023-12-08T13:42:44.737Z,61.47
2023-12-08T13:45:11.567Z,59.30
2023-12-08T13:47:38.416Z,53.03
2023-12-08T13:50:05.358Z,54.70
2023-12-08T13:52:32.010Z,59.67
2023-12-08T13:54:58.707Z,58.55
2023-12-08T13:57:25.929Z,61.08
2023-12-08T13:59:53.811Z,53.80
2023-12-08T14:02:20.970Z,55.38
2023-12-08T14:04:47.802Z,52.23
2023-12-08T14:07:14.850Z,56.88
2023-12-08T14:09:43.412Z,54.58
2023-12-08T14:12:10.838Z,52.67
2023-12-08T14:14:38.026Z,46.30
2023-12-08T14:17:05.045Z,49.63
2023-12-08T14:19:31.800Z,45.75
2023-12-08T14:21:59.960Z,47.88
2023-12-08T14:24:27.127Z,50.05
2023-12-08T14:26:57.022Z,54.30
2023-12-08T14:29:23.663Z,40.03
2023-12-08T14:31:50.520Z,44.47
2023-12-08T14:34:17.571Z,45.67
2023-12-08T14:36:46.250Z,43.20
2023-12-08T14:39:13.149Z,45.00
2023-12-08T14:41:39.976Z,47.63
2023-12-08T14:44:06.587Z,45.33
2023-12-08T14:46:34.427Z,47.53
2023-12-08T14:49:01.273Z,77.30
2023-12-08T14:51:28.047Z,56.58
2023-12-08T14:53:54.835Z,48.17
2023-12-08T14:56:21.531Z,53.65
2023-12-08T14:58:48.070Z,55.17
2023-12-08T15:01:19.228Z,49.70
2023-12-08T15:03:46.781Z,46.72
2023-12-08T15:06:14.625Z,46.53
2023-12-08T15:08:42.534Z,55.17
2023-12-08T15:11:10.394Z,45.10
2023-12-08T15:13:37.721Z,45.67
2023-12-08T15:16:04.798Z,49.38
2023-12-08T15:18:31.689Z,49.20
2023-12-08T15:21:00.199Z,47.78
2023-12-08T15:23:32.967Z,54.05
2023-12-08T15:26:00.348Z,49.55
2023-12-08T15:28:26.945Z,50.58
2023-12-08T15:30:53.599Z,55.03
2023-12-08T15:33:20.530Z,50.47
2023-12-08T15:35:47.565Z,53.30
2023-12-08T15:38:14.255Z,52.92
2023-12-08T15:40:40.800Z,45.75
2023-12-08T15:43:07.399Z,49.57
2023-12-08T15:45:34.712Z,47.53
2023-12-08T15:48:01.647Z,46.45
2023-12-08T15:50:28.545Z,45.90
2023-12-08T15:52:55.166Z,47.60
2023-12-08T15:55:23.059Z,46.87
2023-12-08T15:57:50.053Z,46.05
2023-12-08T16:00:17.512Z,47.95
2023-12-08T16:02:44.990Z,46.10
2023-12-08T16:05:13.410Z,51.35
2023-12-08T16:07:41.708Z,49.37
2023-12-08T16:10:09.067Z,49.17
2023-12-08T16:12:35.756Z,45.13
2023-12-08T16:15:02.441Z,42.75
2023-12-08T16:17:29.677Z,46.58
2023-12-08T16:19:56.658Z,48.60
2023-12-08T16:22:23.468Z,43.95
2023-12-08T16:24:50.196Z,44.05
2023-12-08T16:27:17.002Z,44.38
2023-12-08T16:29:47.570Z,43.35
2023-12-08T16:32:14.586Z,48.90
2023-12-08T16:34:41.330Z,44.50
2023-12-08T16:37:08.142Z,41.58
2023-12-08T16:39:36.861Z,45.95
2023-12-08T16:42:03.801Z,44.70
2023-12-08T16:44:33.525Z,46.70
2023-12-08T16:47:00.213Z,44.22
2023-12-08T16:49:26.956Z,48.75
2023-12-08T16:51:53.782Z,45.40
2023-12-08T16:54:20.458Z,44.90
2023-12-08T16:56:47.261Z,42.17
2023-12-08T16:59:13.895Z,46.92
2023-12-08T17:01:40.448Z,47.22
2023-12-08T17:04:07.736Z,42.42
2023-12-08T17:06:35.308Z,41.90
2023-12-08T17:09:02.143Z,45.33
2023-12-08T17:11:28.987Z,40.60
2023-12-08T17:13:55.575Z,38.40
2023-12-08T17:16:23.086Z,41.78
2023-12-08T17:18:50.007Z,39.00
2023-12-08T17:21:18.179Z,39.23
2023-12-08T17:23:45.532Z,42.47
2023-12-08T17:26:15.172Z,37.60
2023-12-08T17:28:43.900Z,44.78
2023-12-08T17:31:11.649Z,44.92
2023-12-08T17:33:38.456Z,40.57
2023-12-08T17:36:05.604Z,40.95
2023-12-08T17:38:32.216Z,39.80
2023-12-08T17:40:58.805Z,44.13
2023-12-08T17:43:31.159Z,44.00
2023-12-08T17:45:58.415Z,33.83
2023-12-08T17:48:25.241Z,38.08
2023-12-08T17:50:52.119Z,38.33
2023-12-08T17:53:18.791Z,41.72
2023-12-08T17:55:45.504Z,44.17
2023-12-08T17:58:12.233Z,42.13
2023-12-08T18:00:38.913Z,41.53
2023-12-08T18:03:06.345Z,43.60
2023-12-08T18:05:33.092Z,41.72
2023-12-08T18:07:59.813Z,40.08
2023-12-08T18:10:26.381Z,38.77
2023-12-08T18:12:52.994Z,40.35
2023-12-08T18:15:19.630Z,36.25
2023-12-08T18:17:46.419Z,37.58
2023-12-08T18:20:14.258Z,41.83
2023-12-08T18:22:40.941Z,43.17
2023-12-08T18:25:08.147Z,44.15
2023-12-08T18:27:46.635Z,43.60
2023-12-08T18:30:21.713Z,53.75
2023-12-08T18:32:48.440Z,46.92
2023-12-08T18:35:16.354Z,47.67
2023-12-08T18:37:42.962Z,36.70
2023-12-08T18:40:11.276Z,49.30
2023-12-08T18:42:37.964Z,49.65
2023-12-08T18:45:05.932Z,44.65
2023-12-08T18:47:32.582Z,54.27
2023-12-08T18:49:59.196Z,52.70
2023-12-08T18:52:26.037Z,48.30
2023-12-08T18:54:52.970Z,54.00
2023-12-08T18:57:19.784Z,41.17
2023-12-08T18:59:46.439Z,38.10
2023-12-08T19:02:13.092Z,39.38
2023-12-08T19:04:39.655Z,38.88
2023-12-08T19:07:06.865Z,45.40
2023-12-08T19:09:33.593Z,50.03
2023-12-08T19:12:03.887Z,42.27
2023-12-08T19:14:31.177Z,47.10
2023-12-08T19:16:57.788Z,45.15
2023-12-08T19:19:25.959Z,42.35
2023-12-08T19:21:53.290Z,42.83
2023-12-08T19:24:20.076Z,50.30
2023-12-08T19:26:46.800Z,42.40
2023-12-08T19:29:13.510Z,45.65
2023-12-08T19:31:40.648Z,40.83
2023-12-08T19:34:07.664Z,43.40
2023-12-08T19:36:34.499Z,45.10
2023-12-08T19:39:04.412Z,41.72
2023-12-08T19:41:33.865Z,43.28
2023-12-08T19:44:01.711Z,45.15
2023-12-08T19:46:29.525Z,40.38
2023-12-08T19:49:04.443Z,40.03
2023-12-08T19:51:31.700Z,42.35
2023-12-08T19:53:58.612Z,40.30
2023-12-08T19:56:25.356Z,39.83
2023-12-08T19:58:52.266Z,43.35
2023-12-08T20:01:19.702Z,38.60
2023-12-08T20:03:46.478Z,51.28
2023-12-08T20:06:13.260Z,38.97
2023-12-08T20:08:39.964Z,48.15
2023-12-08T20:11:09.095Z,45.10
2023-12-08T20:13:38.888Z,43.10
2023-12-08T20:16:09.093Z,39.60
2023-12-08T20:18:43.513Z,47.80
2023-12-08T20:21:10.840Z,40.00
2023-12-08T20:23:40.265Z,40.50
2023-12-08T20:26:08.274Z,42.53
2023-12-08T20:28:35.067Z,40.78
2023-12-08T20:31:01.662Z,34.88
2023-12-08T20:33:29.374Z,48.78
2023-12-08T20:35:57.599Z,41.75
2023-12-08T20:38:24.742Z,40.53
2023-12-08T20:40:54.129Z,39.10
2023-12-08T20:43:23.712Z,39.78
2023-12-08T20:45:54.791Z,39.85
2023-12-08T20:48:21.789Z,36.72
2023-12-08T20:50:48.817Z,39.63
2023-12-08T20:53:15.792Z,38.92
2023-12-08T20:55:42.628Z,37.95
2023-12-08T20:58:09.494Z,35.35
2023-12-08T21:00:39.420Z,37.97
2023-12-08T21:03:09.140Z,38.67
2023-12-08T21:05:35.920Z,35.13
2023-12-08T21:08:02.496Z,36.83
2023-12-08T21:10:38.918Z,34.50
2023-12-08T21:13:05.537Z,37.40
2023-12-08T21:15:37.790Z,37.77
2023-12-08T21:18:05.878Z,35.83
2023-12-08T21:20:32.683Z,31.73
2023-12-08T21:23:03.976Z,34.47
2023-12-08T21:25:30.560Z,36.40
2023-12-08T21:27:57.161Z,33.80
2023-12-08T21:30:23.993Z,31.38
2023-12-08T21:32:50.846Z,37.53
2023-12-08T21:35:17.598Z,34.60
2023-12-08T21:37:44.312Z,34.60
2023-12-08T21:40:11.423Z,36.67
2023-12-08T21:42:44.512Z,34.17
2023-12-08T21:45:12.106Z,36.22
2023-12-08T21:47:39.206Z,34.97
2023-12-08T21:50:15.677Z,31.65
2023-12-08T21:52:42.385Z,32.47
2023-12-08T21:55:09.559Z,31.58
2023-12-08T21:57:36.513Z,35.28
2023-12-08T22:00:04.398Z,33.97
2023-12-08T22:02:31.232Z,34.55
2023-12-08T22:04:57.889Z,31.47
2023-12-08T22:07:25.726Z,38.75
2023-12-08T22:09:54.950Z,39.03
2023-12-08T22:12:30.791Z,43.10
2023-12-08T22:14:57.485Z,60.72
2023-12-08T22:17:24.713Z,46.63
2023-12-08T22:19:51.806Z,40.05
2023-12-08T22:22:18.704Z,32.45
2023-12-08T22:24:45.608Z,36.35
2023-12-08T22:27:14.412Z,39.88
2023-12-08T22:29:45.665Z,40.70
2023-12-08T22:32:17.463Z,44.53
2023-12-08T22:34:44.082Z,36.88
2023-12-08T22:37:10.937Z,43.50
2023-12-08T22:39:38.730Z,61.65
2023-12-08T22:42:08.085Z,38.10
2023-12-08T22:44:34.772Z,38.80
2023-12-08T22:47:01.457Z,39.75
2023-12-08T22:49:28.167Z,38.08
2023-12-08T22:51:59.174Z,39.33
2023-12-08T22:54:27.299Z,37.43
2023-12-08T22:56:54.275Z,35.25
2023-12-08T22:59:21.354Z,30.17
2023-12-08T23:01:48.143Z,34.95
2023-12-08T23:04:25.247Z,35.67
2023-12-08T23:06:54.806Z,49.57
2023-12-08T23:09:21.857Z,43.03
2023-12-08T23:11:48.492Z,45.42
2023-12-08T23:14:15.360Z,66.35
2023-12-08T23:16:45.761Z,36.85
2023-12-08T23:19:12.721Z,35.90
2023-12-08T23:21:41.985Z,45.28
2023-12-08T23:24:11.072Z,43.22
2023-12-08T23:26:44.105Z,47.67
2023-12-08T23:29:10.799Z,38.97
2023-12-08T23:31:37.645Z,46.80
2023-12-08T23:34:11.588Z,31.20
2023-12-08T23:36:38.353Z,52.00
2023-12-08T23:39:06.675Z,33.35
2023-12-08T23:41:34.250Z,27.05
2023-12-08T23:44:04.502Z,31.77
2023-12-08T23:46:31.272Z,30.52
2023-12-08T23:49:01.517Z,29.48
2023-12-08T23:51:28.886Z,35.17
2023-12-08T23:53:55.790Z,30.05
2023-12-08T23:56:23.973Z,31.93
2023-12-08T23:58:51.500Z,29.15
